Time;durP1;ratioP1;P1;durP2;ratioP2;P2;SDS_P1;SDS_P2;PMS_P1;PMS_P2;Temp;Humidity;BMP_temperature;BMP_pressure;BME280_temperature;BME280_humidity;BME280_pressure;Samples;Min_cycle;Max_cycle;Signal;HPM_P1;HPM_P2
2023/03/26 00:01:40;;;;;;;1.47;1.27;;;;;;;4.26;100.00;96387.75;4990457;28;20730;-63
2023/03/26 00:04:08;;;;;;;1.73;1.63;;;;;;;4.23;100.00;96382.84;4984223;28;20231;-62
2023/03/26 00:06:40;;;;;;;1.33;1.10;;;;;;;4.23;100.00;96395.13;4981934;28;20256;-62
2023/03/26 00:09:11;;;;;;;1.40;1.40;;;;;;;4.12;100.00;96386.59;4936141;28;20232;-63
2023/03/26 00:11:39;;;;;;;2.47;1.33;;;;;;;4.03;100.00;96391.03;4986669;28;20209;-63
2023/03/26 00:14:08;;;;;;;1.60;1.50;;;;;;;3.97;100.00;96394.28;4962489;28;20213;-63
2023/03/26 00:16:35;;;;;;;1.50;1.40;;;;;;;4.00;100.00;96393.97;4987238;28;20204;-62
2023/03/26 00:19:03;;;;;;;3.67;1.50;;;;;;;4.04;100.00;96404.94;4983247;28;20869;-60
2023/03/26 00:21:31;;;;;;;1.53;1.43;;;;;;;4.09;100.00;96410.50;4987569;28;21293;-63
2023/03/26 00:24:03;;;;;;;2.17;1.37;;;;;;;4.07;100.00;96406.44;4928514;28;20217;-63
2023/03/26 00:26:31;;;;;;;2.63;1.60;;;;;;;3.96;100.00;96403.13;4986063;28;20291;-62
2023/03/26 00:29:00;;;;;;;2.10;1.40;;;;;;;3.87;100.00;96404.09;4984426;28;20239;-65
2023/03/26 00:31:27;;;;;;;1.37;1.27;;;;;;;3.81;100.00;96413.44;4958705;28;20345;-63
2023/03/26 00:33:55;;;;;;;2.10;1.70;;;;;;;3.92;100.00;96417.53;4978884;28;20223;-64
2023/03/26 00:36:25;;;;;;;1.70;1.27;;;;;;;3.99;100.00;96418.56;4983482;28;20619;-63
2023/03/26 00:38:54;;;;;;;1.50;1.30;;;;;;;3.89;100.00;96415.22;4948027;28;20529;-63
2023/03/26 00:41:29;;;;;;;2.93;1.87;;;;;;;3.81;100.00;96405.56;4979148;28;20629;-62
2023/03/26 00:43:59;;;;;;;1.70;1.53;;;;;;;3.82;100.00;96404.59;4960539;28;20212;-61
2023/03/26 00:46:28;;;;;;;1.40;1.30;;;;;;;3.74;100.00;96410.63;4958487;28;20541;-63
2023/03/26 00:48:57;;;;;;;1.13;1.13;;;;;;;3.70;100.00;96409.31;4982887;28;20311;-64
2023/03/26 00:51:26;;;;;;;4.90;1.33;;;;;;;3.66;100.00;96401.91;4986129;28;20724;-62
2023/03/26 00:53:55;;;;;;;1.73;1.63;;;;;;;3.72;100.00;96402.09;4935587;28;20671;-63
2023/03/26 00:56:25;;;;;;;2.23;1.67;;;;;;;3.83;100.00;96403.59;4988990;28;20216;-61
2023/03/26 00:58:52;;;;;;;1.60;1.50;;;;;;;3.82;100.00;96401.97;4984277;28;20220;-65
2023/03/26 01:01:26;;;;;;;4.87;1.33;;;;;;;3.92;100.00;96401.81;4959399;28;20680;-63
2023/03/26 01:03:58;;;;;;;2.67;1.60;;;;;;;4.08;100.00;96408.06;4958806;28;20635;-63
2023/03/26 01:06:37;;;;;;;1.50;1.37;;;;;;;4.27;100.00;96412.19;4979104;28;20428;-63
2023/03/26 01:09:12;;;;;;;2.40;1.63;;;;;;;4.31;100.00;96419.53;4982913;28;20263;-61
2023/03/26 01:11:41;;;;;;;5.70;2.03;;;;;;;4.42;100.00;96413.16;4930287;28;20228;-62
2023/03/26 01:14:11;;;;;;;4.50;1.67;;;;;;;4.53;100.00;96405.94;4980080;28;20219;-61
2023/03/26 01:16:41;;;;;;;1.20;1.20;;;;;;;4.49;100.00;96413.34;4984433;28;20213;-60
2023/03/26 01:19:15;;;;;;;2.10;1.20;;;;;;;4.71;100.00;96403.97;4983327;28;20660;-61
2023/03/26 01:21:43;;;;;;;5.00;1.50;;;;;;;4.88;100.00;96386.38;4975017;28;20201;-63
2023/03/26 01:24:12;;;;;;;2.53;1.60;;;;;;;4.80;100.00;96391.66;4971348;28;20296;-62
2023/03/26 01:27:04;;;;;;;5.27;1.90;;;;;;;4.88;100.00;96390.81;4906304;28;20412;-62
2023/03/26 01:29:38;;;;;;;1.70;1.50;;;;;;;4.79;100.00;96382.16;4987588;28;20592;-64
2023/03/26 01:32:17;;;;;;;2.93;1.60;;;;;;;4.70;100.00;96383.13;4963033;28;20232;-63
2023/03/26 01:34:52;;;;;;;2.10;2.00;;;;;;;4.62;100.00;96378.72;4976047;28;20268;-61
2023/03/26 01:37:26;;;;;;;4.37;1.63;;;;;;;4.56;100.00;96377.56;4973349;28;20205;-65
2023/03/26 01:39:57;;;;;;;5.13;1.80;;;;;;;4.48;100.00;96380.22;4957618;28;20335;-62
2023/03/26 01:42:34;;;;;;;3.07;1.33;;;;;;;4.41;100.00;96368.75;4910117;28;20248;-64
2023/03/26 01:45:09;;;;;;;3.17;2.00;;;;;;;4.29;100.00;96373.50;4982710;28;20209;-62
2023/03/26 01:47:38;;;;;;;2.33;1.43;;;;;;;4.12;100.00;96363.00;4957267;28;20361;-62
2023/03/26 01:50:07;;;;;;;4.93;1.93;;;;;;;4.11;100.00;96366.59;4988936;28;20232;-62
2023/03/26 01:52:35;;;;;;;4.53;1.73;;;;;;;4.01;100.00;96371.19;4981204;28;20203;-63
2023/03/26 01:55:05;;;;;;;3.27;1.60;;;;;;;3.95;100.00;96379.72;4979491;28;20495;-63
2023/03/26 01:57:36;;;;;;;4.67;1.97;;;;;;;3.96;100.00;96378.72;4915149;28;20562;-64
2023/03/26 02:00:13;;;;;;;2.63;1.50;;;;;;;3.88;100.00;96374.28;4980592;28;20713;-62
2023/03/26 02:02:46;;;;;;;2.00;1.90;;;;;;;3.91;100.00;96374.78;4961749;28;20634;-62
2023/03/26 02:05:17;;;;;;;3.63;2.17;;;;;;;3.99;100.00;96376.59;4983506;28;20201;-63
2023/03/26 02:07:49;;;;;;;3.73;1.43;;;;;;;4.01;100.00;96366.78;4982667;28;20213;-62
2023/03/26 02:10:24;;;;;;;3.57;2.00;;;;;;;3.97;100.00;96362.00;4969107;28;20204;-61
2023/03/26 02:12:52;;;;;;;4.33;1.80;;;;;;;3.96;100.00;96363.81;4921214;28;20895;-64
2023/03/26 02:15:20;;;;;;;5.40;2.03;;;;;;;3.96;100.00;96368.25;4981002;28;20476;-65
2023/03/26 02:17:51;;;;;;;6.00;1.80;;;;;;;3.97;100.00;96368.06;4985127;28;20295;-61
2023/03/26 02:20:20;;;;;;;4.43;1.80;;;;;;;4.06;100.00;96361.03;4960651;28;20886;-63
2023/03/26 02:22:48;;;;;;;3.63;2.00;;;;;;;4.16;100.00;96358.25;4981007;28;20215;-60
2023/03/26 02:25:17;;;;;;;3.03;1.60;;;;;;;4.33;100.00;96359.06;4981014;28;20734;-63
2023/03/26 02:27:46;;;;;;;4.07;2.00;;;;;;;4.47;100.00;96347.09;4912144;28;20745;-60
2023/03/26 02:30:16;;;;;;;3.77;2.20;;;;;;;4.58;100.00;96344.13;4983756;28;20652;-64
2023/03/26 02:32:44;;;;;;;5.20;1.90;;;;;;;4.71;100.00;96345.41;4981195;28;20746;-62
2023/03/26 02:35:12;;;;;;;7.73;2.67;;;;;;;4.71;100.00;96350.66;4962846;28;20355;-64
2023/03/26 02:37:40;;;;;;;4.60;2.77;;;;;;;4.80;100.00;96341.78;4982117;28;20537;-60
2023/03/26 02:40:10;;;;;;;2.93;2.27;;;;;;;4.80;100.00;96347.03;4981657;28;20234;-64
2023/03/26 02:42:38;;;;;;;4.77;2.40;;;;;;;4.93;100.00;96333.38;4964895;28;20563;-62
2023/03/26 02:45:08;;;;;;;2.60;1.73;;;;;;;4.91;100.00;96333.53;4934203;28;20200;-62
2023/03/26 02:47:35;;;;;;;6.33;2.03;;;;;;;4.90;100.00;96329.28;4977001;28;20322;-63
2023/03/26 02:50:03;;;;;;;4.03;1.87;;;;;;;4.94;100.00;96329.78;4963240;28;20327;-63
2023/03/26 02:52:32;;;;;;;6.07;3.00;;;;;;;4.89;100.00;96325.03;4963838;28;20220;-61
2023/03/26 02:55:00;;;;;;;4.30;1.73;;;;;;;4.89;100.00;96318.94;4986149;28;20200;-62
2023/03/26 02:57:27;;;;;;;3.73;1.93;;;;;;;4.83;100.00;96309.97;4982082;28;20412;-63
2023/03/26 02:59:55;;;;;;;5.30;2.10;;;;;;;4.69;100.00;96310.63;4935524;28;20263;-63
2023/03/26 03:02:24;;;;;;;1.90;1.67;;;;;;;4.71;100.00;96316.53;4978264;28;20733;-63
2023/03/26 03:04:54;;;;;;;2.60;2.07;;;;;;;4.68;100.00;96328.19;4963605;28;20697;-59
2023/03/26 03:07:24;;;;;;;4.40;1.83;;;;;;;4.66;100.00;96318.84;4957543;28;20220;-65
2023/03/26 03:09:51;;;;;;;7.63;2.23;;;;;;;4.60;100.00;96315.91;4969689;28;20425;-62
2023/03/26 03:12:19;;;;;;;5.60;2.00;;;;;;;4.51;100.00;96311.69;4955984;28;20868;-63
2023/03/26 03:14:46;;;;;;;5.53;1.83;;;;;;;4.48;100.00;96312.00;4931498;28;20394;-64
2023/03/26 03:17:14;;;;;;;3.70;2.23;;;;;;;4.42;100.00;96304.81;4979915;28;20211;-63
2023/03/26 03:19:43;;;;;;;6.43;2.00;;;;;;;4.38;100.00;96311.38;4981503;28;20676;-64
2023/03/26 03:22:11;;;;;;;4.67;2.30;;;;;;;4.40;100.00;96304.16;4957591;28;20560;-62
2023/03/26 03:24:42;;;;;;;5.10;1.93;;;;;;;4.42;100.00;96307.44;4968830;28;20211;-63
2023/03/26 03:27:11;;;;;;;3.77;1.90;;;;;;;4.43;100.00;96303.81;4978741;28;20213;-63
2023/03/26 03:29:38;;;;;;;2.77;2.10;;;;;;;4.47;100.00;96307.75;4930844;28;20241;-63
2023/03/26 03:32:06;;;;;;;2.90;2.00;;;;;;;4.48;100.00;96304.13;4977657;28;20327;-62
2023/03/26 03:34:37;;;;;;;9.33;2.40;;;;;;;4.52;100.00;96308.06;4983912;28;20609;-64
2023/03/26 03:37:06;;;;;;;9.13;2.20;;;;;;;4.56;100.00;96304.13;4954638;28;21317;-62
2023/03/26 03:39:33;;;;;;;3.83;1.97;;;;;;;4.61;100.00;96293.94;4965608;28;20228;-64
2023/03/26 03:42:01;;;;;;;3.60;1.73;;;;;;;4.57;100.00;96295.25;4979722;28;20235;-63
2023/03/26 03:44:29;;;;;;;3.47;2.37;;;;;;;4.60;100.00;96283.63;4984058;28;20616;-63
2023/03/26 03:46:57;;;;;;;5.37;1.87;;;;;;;4.56;100.00;96284.94;4936705;28;20300;-63
2023/03/26 03:49:25;;;;;;;5.67;1.80;;;;;;;4.47;100.00;96282.31;4983715;28;20470;-62
2023/03/26 03:51:52;;;;;;;4.17;2.43;;;;;;;4.40;100.00;96283.97;4977098;28;20736;-63
2023/03/26 03:54:21;;;;;;;1.50;1.40;;;;;;;4.26;100.00;96292.53;4957493;28;20213;-63
2023/03/26 03:56:49;;;;;;;4.43;1.87;;;;;;;4.26;100.00;96288.09;4975064;28;20270;-64
2023/03/26 03:59:16;;;;;;;3.40;1.83;;;;;;;4.22;100.00;96281.56;4988434;28;20759;-62
2023/03/26 04:01:45;;;;;;;2.60;1.87;;;;;;;4.13;100.00;96280.72;4922725;28;20672;-63
2023/03/26 04:04:13;;;;;;;4.50;2.53;;;;;;;4.03;100.00;96280.09;4985100;28;20204;-60
2023/03/26 04:06:40;;;;;;;3.47;1.90;;;;;;;3.91;100.00;96274.38;4983802;28;20736;-62
2023/03/26 04:09:09;;;;;;;3.17;1.87;;;;;;;3.79;100.00;96276.50;4960339;28;20232;-58
2023/03/26 04:11:38;;;;;;;5.33;2.60;;;;;;;3.75;100.00;96283.03;4983875;28;20377;-63
2023/03/26 04:14:05;;;;;;;5.43;2.30;;;;;;;3.69;100.00;96284.53;4988415;28;20339;-62
2023/03/26 04:16:33;;;;;;;5.73;2.30;;;;;;;4.02;100.00;96270.59;4931520;28;20224;-63
2023/03/26 04:19:02;;;;;;;7.40;2.13;;;;;;;3.89;100.00;96271.09;4983091;28;20243;-62
2023/03/26 04:21:30;;;;;;;2.93;2.20;;;;;;;3.76;100.00;96266.34;4984106;28;20216;-62
2023/03/26 04:24:00;;;;;;;2.43;2.20;;;;;;;3.67;100.00;96267.31;4958611;28;20758;-62
2023/03/26 04:26:29;;;;;;;6.27;2.47;;;;;;;3.57;100.00;96272.72;4979468;28;20258;-60
2023/03/26 04:29:00;;;;;;;3.73;2.10;;;;;;;3.46;100.00;96269.44;4978666;28;20583;-60
2023/03/26 04:31:29;;;;;;;3.20;1.93;;;;;;;3.40;100.00;96277.09;4979441;28;20239;-61
2023/03/26 04:34:04;;;;;;;4.23;2.23;;;;;;;3.35;100.00;96284.63;4948504;28;20588;-62
2023/03/26 04:36:33;;;;;;;6.60;2.20;;;;;;;3.25;100.00;96279.56;4986547;28;20661;-63
2023/03/26 04:39:04;;;;;;;3.07;2.17;;;;;;;3.13;100.00;96271.97;4962300;28;20528;-60
2023/03/26 04:41:32;;;;;;;6.77;2.10;;;;;;;3.07;100.00;96267.38;4981878;28;20205;-62
2023/03/26 04:44:01;;;;;;;4.27;2.13;;;;;;;2.98;100.00;96271.75;4980891;28;20208;-63
2023/03/26 04:46:32;;;;;;;3.00;2.17;;;;;;;2.88;100.00;96268.47;4988246;28;20200;-62
2023/03/26 04:49:01;;;;;;;7.00;2.53;;;;;;;2.84;100.00;96273.22;4952403;28;20510;-64
2023/03/26 04:51:33;;;;;;;2.23;1.80;;;;;;;2.83;100.00;96275.97;4982658;28;20228;-62
2023/03/26 04:54:02;;;;;;;3.73;1.87;;;;;;;2.77;100.00;96277.41;4989898;28;20311;-63
2023/03/26 04:56:36;;;;;;;2.17;1.93;;;;;;;2.75;100.00;96277.59;4966469;28;20212;-61
2023/03/26 04:59:06;;;;;;;5.77;2.07;;;;;;;2.73;100.00;96276.09;4986589;28;20235;-63
2023/03/26 05:01:36;;;;;;;2.37;2.17;;;;;;;2.71;100.00;96280.66;4966492;28;20500;-63
2023/03/26 05:04:05;;;;;;;3.73;3.00;;;;;;;2.72;100.00;96277.06;4960454;28;20779;-63
2023/03/26 05:06:33;;;;;;;5.13;2.10;;;;;;;2.71;100.00;96278.03;4984618;28;20233;-62
2023/03/26 05:09:01;;;;;;;2.40;2.20;;;;;;;2.68;100.00;96273.13;4972685;28;20554;-62
2023/03/26 05:11:29;;;;;;;6.03;2.40;;;;;;;2.73;100.00;96273.47;4964189;28;20633;-64
2023/03/26 05:13:57;;;;;;;8.67;2.87;;;;;;;2.75;100.00;96276.75;4992678;28;20235;-63
2023/03/26 05:16:26;;;;;;;5.00;3.17;;;;;;;2.72;100.00;96267.44;4985160;28;20208;-64
2023/03/26 05:18:54;;;;;;;4.80;2.50;;;;;;;2.77;100.00;96269.56;4934718;28;20232;-62
2023/03/26 05:21:22;;;;;;;3.30;2.77;;;;;;;2.86;100.00;96266.03;4969317;28;20281;-62
2023/03/26 05:23:49;;;;;;;8.70;2.47;;;;;;;2.91;100.00;96264.72;4967211;28;20202;-62
2023/03/26 05:26:18;;;;;;;4.23;2.77;;;;;;;2.93;100.00;96262.78;4961107;28;20213;-64
2023/03/26 05:28:45;;;;;;;4.60;3.00;;;;;;;2.98;100.00;96250.03;4956734;28;20302;-65
2023/03/26 05:31:14;;;;;;;3.83;2.40;;;;;;;3.13;100.00;96265.94;4987790;28;21045;-65
2023/03/26 05:33:43;;;;;;;6.30;2.70;;;;;;;3.28;100.00;96268.75;4916388;28;21047;-64
2023/03/26 05:36:14;;;;;;;3.67;1.90;;;;;;;3.42;100.00;96257.66;4982932;28;20212;-64
2023/03/26 05:38:45;;;;;;;6.30;3.30;;;;;;;3.61;100.00;96255.72;4979222;28;20212;-64
2023/03/26 05:41:14;;;;;;;4.53;1.97;;;;;;;3.71;100.00;96248.50;4987966;28;20299;-64
2023/03/26 05:43:42;;;;;;;3.90;2.13;;;;;;;3.79;100.00;96244.25;4969803;28;20320;-63
2023/03/26 05:46:10;;;;;;;2.03;1.83;;;;;;;3.87;100.00;96244.22;4972513;28;20680;-61
2023/03/26 05:48:38;;;;;;;2.87;2.10;;;;;;;3.97;100.00;96233.59;4923820;28;21601;-62
2023/03/26 05:51:07;;;;;;;4.27;2.13;;;;;;;4.12;100.00;96234.53;4983939;28;20549;-65
2023/03/26 05:53:35;;;;;;;4.35;2.20;;;;;;;4.13;100.00;96244.03;4976415;28;20458;-64
2023/03/26 05:56:03;;;;;;;2.17;1.60;;;;;;;4.15;100.00;96228.94;4986054;28;20204;-63
2023/03/26 05:58:32;;;;;;;4.03;2.23;;;;;;;4.15;100.00;96236.81;4966361;28;21266;-62
2023/03/26 06:01:04;;;;;;;3.67;2.43;;;;;;;4.18;100.00;96228.66;4969479;28;20212;-63
2023/03/26 06:03:32;;;;;;;3.37;2.13;;;;;;;4.17;100.00;96219.16;4985178;28;20965;-62
2023/03/26 06:06:00;;;;;;;2.53;1.90;;;;;;;4.17;100.00;96216.53;4946767;28;20757;-62
2023/03/26 06:08:29;;;;;;;1.93;1.57;;;;;;;4.20;100.00;96215.34;4984245;28;20221;-61
2023/03/26 06:11:00;;;;;;;4.50;2.27;;;;;;;4.25;100.00;96210.41;4988446;28;20222;-62
2023/03/26 06:13:28;;;;;;;3.07;2.03;;;;;;;4.29;100.00;96211.72;4963042;28;20232;-63
2023/03/26 06:15:56;;;;;;;3.83;2.20;;;;;;;4.34;100.00;96217.28;4969184;28;20212;-61
2023/03/26 06:18:24;;;;;;;1.63;1.33;;;;;;;4.40;100.00;96212.38;4982848;28;20235;-62
2023/03/26 06:20:52;;;;;;;3.03;1.63;;;;;;;4.38;100.00;96209.09;4940445;28;20688;-62
2023/03/26 06:23:21;;;;;;;3.47;2.27;;;;;;;4.38;100.00;96211.72;4981997;28;20838;-62
2023/03/26 06:25:50;;;;;;;2.40;1.90;;;;;;;4.35;100.00;96202.38;4986682;28;20213;-62
2023/03/26 06:28:18;;;;;;;2.10;1.40;;;;;;;4.33;100.00;96192.03;4965689;28;20738;-62
2023/03/26 06:30:45;;;;;;;2.30;1.60;;;;;;;4.41;100.00;96193.81;4975434;28;20212;-62
2023/03/26 06:33:13;;;;;;;3.00;1.50;;;;;;;4.52;100.00;96195.25;4961305;28;21215;-63
2023/03/26 06:35:41;;;;;;;2.53;1.77;;;;;;;4.59;100.00;96190.97;4945983;28;20225;-63
2023/03/26 06:38:10;;;;;;;2.37;2.17;;;;;;;4.69;100.00;96188.13;4959827;28;20704;-63
2023/03/26 06:40:38;;;;;;;2.00;1.70;;;;;;;4.85;100.00;96182.00;4987329;28;20685;-62
2023/03/26 06:43:07;;;;;;;2.67;2.15;;;;;;;4.87;100.00;96185.25;4977595;28;20552;-63
2023/03/26 06:45:38;;;;;;;2.47;1.70;;;;;;;4.97;100.00;96174.53;4983833;28;21096;-64
2023/03/26 06:48:07;;;;;;;3.43;2.03;;;;;;;5.24;100.00;96172.38;4973031;28;20219;-63
2023/03/26 06:50:34;;;;;;;3.20;2.10;;;;;;;5.43;100.00;96167.66;4935068;28;20745;-62
2023/03/26 06:53:02;;;;;;;2.73;2.00;;;;;;;5.57;100.00;96164.25;4976612;28;21007;-64
2023/03/26 06:55:30;;;;;;;5.30;2.00;;;;;;;5.67;100.00;96158.75;4990442;28;20204;-64
2023/03/26 06:57:57;;;;;;;2.43;1.90;;;;;;;5.67;100.00;96157.91;4989801;28;21057;-64
2023/03/26 07:00:26;;;;;;;3.33;2.30;;;;;;;5.73;100.00;96163.28;4953204;28;20213;-62
2023/03/26 07:02:54;;;;;;;2.40;2.30;;;;;;;5.82;100.00;96153.53;4973002;28;20391;-63
2023/03/26 07:05:22;;;;;;;3.70;2.17;;;;;;;5.76;100.00;96146.34;4980761;28;20219;-62
2023/03/26 07:07:49;;;;;;;2.83;2.20;;;;;;;5.83;100.00;96149.06;4948290;28;20231;-63
2023/03/26 07:10:17;;;;;;;5.70;2.17;;;;;;;5.79;100.00;96149.44;4957277;28;20258;-63
2023/03/26 07:12:45;;;;;;;2.63;2.43;;;;;;;5.79;100.00;96149.44;4987589;28;20222;-64
2023/03/26 07:15:12;;;;;;;4.53;2.53;;;;;;;5.83;100.00;96142.00;4960170;28;20223;-63
2023/03/26 07:17:41;;;;;;;2.70;2.37;;;;;;;5.98;100.00;96141.19;4966527;28;20213;-63
2023/03/26 07:20:10;;;;;;;3.97;3.20;;;;;;;6.11;100.00;96143.22;4977324;28;20232;-64
2023/03/26 07:22:39;;;;;;;3.23;2.53;;;;;;;6.12;100.00;96129.91;4941017;28;20212;-64
2023/03/26 07:25:08;;;;;;;3.13;2.63;;;;;;;6.11;100.00;96114.31;4944937;28;20204;-63
2023/03/26 07:27:41;;;;;;;4.53;2.80;;;;;;;6.06;100.00;96120.94;4973066;28;20215;-63
2023/03/26 07:30:12;;;;;;;2.70;2.50;;;;;;;6.09;100.00;96111.88;4969474;28;20229;-63
2023/03/26 07:32:47;;;;;;;2.07;1.97;;;;;;;6.08;100.00;96111.03;4981363;28;20267;-61
2023/03/26 07:35:20;;;;;;;3.20;2.83;;;;;;;6.11;100.00;96101.16;4967741;28;20219;-64
2023/03/26 07:37:56;;;;;;;3.03;2.43;;;;;;;6.13;100.00;96100.00;4941473;28;20209;-63
2023/03/26 07:40:40;;;;;;;2.90;2.57;;;;;;;6.14;100.00;96095.53;4961974;28;20380;-63
2023/03/26 07:43:15;;;;;;;2.70;2.40;;;;;;;6.12;100.00;96093.09;4960701;28;20218;-63
2023/03/26 07:45:44;;;;;;;4.80;2.70;;;;;;;6.05;100.00;96107.94;4968504;28;20211;-63
2023/03/26 07:48:17;;;;;;;2.67;2.47;;;;;;;6.17;100.00;96096.00;4978206;28;20256;-63
2023/03/26 07:50:45;;;;;;;3.40;2.80;;;;;;;6.20;100.00;96084.28;4974537;28;20214;-64
2023/03/26 07:53:14;;;;;;;4.23;2.60;;;;;;;6.27;100.00;96089.63;4934455;28;20208;-63
2023/03/26 07:55:49;;;;;;;2.73;2.47;;;;;;;6.39;100.00;96089.97;4964232;28;20204;-63
2023/03/26 07:58:31;;;;;;;2.80;2.60;;;;;;;6.49;100.00;96078.16;4983922;28;20250;-63
2023/03/26 08:01:03;;;;;;;3.87;2.47;;;;;;;6.64;100.00;96080.75;4975666;28;20209;-65
2023/03/26 08:03:49;;;;;;;4.60;2.67;;;;;;;6.64;100.00;96075.50;4974285;28;20197;-60
2023/03/26 08:06:21;;;;;;;3.00;2.37;;;;;;;6.87;100.00;96071.84;4963323;28;20850;-65
2023/03/26 08:08:53;;;;;;;4.23;2.80;;;;;;;6.96;100.00;96067.28;4925255;28;20316;-65
2023/03/26 08:11:29;;;;;;;3.03;2.33;;;;;;;6.91;100.00;96067.84;4977678;28;20338;-65
2023/03/26 08:14:03;;;;;;;3.90;2.57;;;;;;;6.83;100.00;96048.75;4968544;28;20425;-65
2023/03/26 08:16:37;;;;;;;2.87;2.30;;;;;;;6.69;100.00;96045.16;4975982;28;20203;-64
2023/03/26 08:19:11;;;;;;;2.27;2.07;;;;;;;6.68;100.00;96046.16;4940541;28;20242;-65
2023/03/26 08:21:42;;;;;;;2.47;2.27;;;;;;;6.69;100.00;96039.91;4967181;28;20274;-64
2023/03/26 08:24:18;;;;;;;2.67;2.47;;;;;;;6.66;100.00;96033.19;4909748;28;20886;-65
2023/03/26 08:26:50;;;;;;;5.13;2.40;;;;;;;6.76;100.00;96040.78;4987152;28;20205;-64
2023/03/26 08:29:20;;;;;;;3.67;2.33;;;;;;;6.85;100.00;96037.00;4967155;28;20645;-65
2023/03/26 08:31:49;;;;;;;2.90;2.33;;;;;;;6.91;100.00;96032.81;4991219;28;20754;-64
2023/03/26 08:34:18;;;;;;;4.13;2.60;;;;;;;6.94;100.00;96024.53;4962522;28;20473;-65
2023/03/26 08:36:46;;;;;;;2.83;2.30;;;;;;;6.95;100.00;96023.53;4970692;28;20212;-63
2023/03/26 08:39:14;;;;;;;2.70;2.50;;;;;;;7.01;100.00;96022.75;4929272;28;20607;-65
2023/03/26 08:42:09;;;;;;;2.83;2.20;;;;;;;7.10;100.00;96015.53;4984323;28;20205;-64
2023/03/26 08:44:59;;;;;;;3.00;2.60;;;;;;;6.98;100.00;96023.13;4963796;28;20568;-63
2023/03/26 08:48:00;;;;;;;4.87;2.53;;;;;;;6.80;100.00;96013.06;4963831;28;20781;-65
2023/03/26 08:51:06;;;;;;;3.07;2.73;;;;;;;6.77;100.00;96016.06;4981867;28;20204;-64
2023/03/26 08:54:02;;;;;;;4.00;2.33;;;;;;;6.87;100.00;96019.19;4925523;28;20203;-63
2023/03/26 08:56:35;;;;;;;4.73;3.53;;;;;;;6.91;100.00;96014.38;4942275;28;20206;-65
2023/03/26 08:59:18;;;;;;;2.97;2.57;;;;;;;6.78;100.00;96017.69;4959375;28;20271;-64
2023/03/26 09:02:10;;;;;;;4.75;3.17;;;;;;;6.75;100.00;96010.97;4961539;28;20461;-64
2023/03/26 09:05:03;;;;;;;2.73;2.53;;;;;;;6.72;100.00;96003.47;4971285;28;20219;-66
2023/03/26 09:08:10;;;;;;;5.30;3.40;;;;;;;6.78;100.00;96007.97;4970113;28;20213;-66
2023/03/26 09:11:02;;;;;;;4.87;3.83;;;;;;;6.69;100.00;96000.41;4879363;28;20220;-66
2023/03/26 09:14:05;;;;;;;6.43;4.82;;;;;;;6.77;100.00;95992.38;4936437;28;20542;-64
2023/03/26 09:16:55;;;;;;;4.47;3.13;;;;;;;6.71;100.00;95985.25;4957800;28;20213;-65
2023/03/26 09:19:54;;;;;;;3.97;3.30;;;;;;;6.83;100.00;95970.56;4967676;28;20243;-66
2023/03/26 09:22:41;;;;;;;3.53;3.10;;;;;;;6.90;100.00;95963.50;4978711;28;20212;-65
2023/03/26 09:25:41;;;;;;;4.40;3.20;;;;;;;6.98;100.00;95953.84;4928707;28;20659;-65
2023/03/26 09:28:50;;;;;;;5.30;2.50;;;;;;;7.15;100.00;95942.03;4982296;28;20336;-66
2023/03/26 09:31:34;;;;;;;4.10;3.03;;;;;;;7.59;100.00;95942.69;4963265;28;20655;-65
2023/03/26 09:34:20;;;;;;;3.47;3.17;;;;;;;7.81;100.00;95929.38;4962477;28;20555;-66
2023/03/26 09:36:55;;;;;;;5.93;3.77;;;;;;;7.80;100.00;95923.31;4977472;28;20440;-67
2023/03/26 09:39:36;;;;;;;3.17;2.97;;;;;;;7.76;100.00;95922.03;4970499;28;20224;-67
2023/03/26 09:42:18;;;;;;;4.43;3.57;;;;;;;7.60;100.00;95912.69;4922043;28;20691;-64
2023/03/26 09:45:09;;;;;;;6.40;2.90;;;;;;;7.48;100.00;95915.06;4966690;28;20532;-66
2023/03/26 09:47:53;;;;;;;7.90;5.43;;;;;;;7.39;100.00;95916.22;4967443;28;20446;-67
2023/03/26 09:50:29;;;;;;;7.57;4.20;;;;;;;7.45;100.00;95907.53;4957316;28;21017;-68
2023/03/26 09:53:08;;;;;;;7.00;4.27;;;;;;;7.51;100.00;95905.94;4979052;28;20204;-65
2023/03/26 09:55:48;;;;;;;5.70;4.85;;;;;;;7.60;100.00;95899.50;4957899;28;20460;-67
2023/03/26 09:58:35;;;;;;;6.93;5.13;;;;;;;7.73;100.00;95906.63;4930898;28;20910;-65
2023/03/26 10:01:09;;;;;;;5.07;3.13;;;;;;;7.70;100.00;95903.59;4945682;28;20208;-65
2023/03/26 10:03:41;;;;;;;3.90;3.27;;;;;;;7.81;100.00;95885.38;4980914;28;20212;-66
2023/03/26 10:06:15;;;;;;;5.80;3.13;;;;;;;7.78;100.00;95882.31;4966169;28;20212;-68
2023/03/26 10:08:52;;;;;;;3.88;3.10;;;;;;;7.74;100.00;95884.50;4967629;28;20455;-68
2023/03/26 10:11:32;;;;;;;3.00;2.70;;;;;;;7.62;100.00;95873.75;4959915;28;20213;-66
2023/03/26 10:14:06;;;;;;;4.60;3.10;;;;;;;7.57;100.00;95883.25;4946419;28;20217;-65
2023/03/26 10:16:41;;;;;;;3.90;3.37;;;;;;;7.45;100.00;95864.53;4942545;28;20790;-68
2023/03/26 10:19:35;;;;;;;4.47;2.53;;;;;;;7.44;100.00;95865.56;4981839;28;20231;-69
2023/03/26 10:22:12;;;;;;;4.87;2.43;;;;;;;7.37;100.00;95861.06;4960632;28;20215;-67
2023/03/26 10:25:00;;;;;;;5.13;2.80;;;;;;;7.27;100.00;95878.25;4973464;28;20205;-66
2023/03/26 10:27:38;;;;;;;3.13;2.43;;;;;;;7.17;100.00;95889.97;4923162;28;20600;-66
2023/03/26 10:30:23;;;;;;;7.07;3.17;;;;;;;7.20;100.00;95888.78;4978511;28;20221;-67
2023/03/26 10:32:59;;;;;;;4.53;3.03;;;;;;;7.39;100.00;95882.78;4937055;28;20760;-67
2023/03/26 10:35:45;;;;;;;3.57;3.23;;;;;;;7.48;100.00;95885.22;4981719;28;20683;-67
2023/03/26 10:38:16;;;;;;;3.77;2.67;;;;;;;7.49;100.00;95882.41;4968763;28;20258;-67
2023/03/26 10:40:51;;;;;;;5.40;3.23;;;;;;;7.56;100.00;95889.53;4949375;28;20209;-66
2023/03/26 10:43:30;;;;;;;7.23;3.07;;;;;;;7.53;100.00;95882.81;4906379;28;20294;-65
2023/03/26 10:46:20;;;;;;;4.10;3.20;;;;;;;7.49;100.00;95879.78;4931622;28;20239;-66
2023/03/26 10:49:02;;;;;;;3.90;3.60;;;;;;;7.31;100.00;95876.84;4957282;28;20255;-67
2023/03/26 10:51:47;;;;;;;4.97;3.13;;;;;;;7.37;100.00;95886.59;4980434;28;20304;-65
2023/03/26 10:54:23;;;;;;;4.60;2.63;;;;;;;7.43;100.00;95888.47;4979796;28;20333;-66
2023/03/26 10:56:51;;;;;;;3.47;3.17;;;;;;;7.52;100.00;95891.72;4979317;28;20221;-67
2023/03/26 10:59:20;;;;;;;8.13;4.90;;;;;;;7.53;100.00;95888.91;4917587;28;21196;-65
2023/03/26 11:01:55;;;;;;;4.67;3.47;;;;;;;7.43;100.00;95885.84;4960007;28;20240;-65
2023/03/26 11:04:32;;;;;;;5.23;4.20;;;;;;;7.47;100.00;95878.34;4953119;28;20250;-66
2023/03/26 11:07:06;;;;;;;5.33;4.27;;;;;;;7.51;100.00;95877.75;4962870;28;20982;-66
2023/03/26 11:09:41;;;;;;;5.33;3.90;;;;;;;7.52;100.00;95868.84;4980200;28;20226;-66
2023/03/26 11:12:16;;;;;;;6.37;4.07;;;;;;;7.75;100.00;95869.53;4982830;28;20498;-66
2023/03/26 11:15:02;;;;;;;3.73;3.13;;;;;;;8.03;100.00;95861.47;4927307;28;20477;-68
2023/03/26 11:17:38;;;;;;;3.67;3.30;;;;;;;7.81;100.00;95864.28;4960144;28;20260;-65
2023/03/26 11:20:13;;;;;;;6.13;3.20;;;;;;;7.64;100.00;95870.91;4958977;28;20228;-68
2023/03/26 11:22:50;;;;;;;4.77;3.40;;;;;;;7.50;100.00;95867.41;4981046;28;20267;-68
2023/03/26 11:25:26;;;;;;;5.97;2.77;;;;;;;7.32;100.00;95873.19;4976001;28;20223;-67
2023/03/26 11:28:04;;;;;;;4.93;3.10;;;;;;;6.99;100.00;95876.47;4982320;28;20498;-68
2023/03/26 11:30:40;;;;;;;4.00;2.70;;;;;;;6.95;100.00;95884.75;4928688;28;20659;-67
2023/03/26 11:33:15;;;;;;;3.67;2.60;;;;;;;6.86;100.00;95878.00;4959866;28;20763;-66
2023/03/26 11:35:46;;;;;;;4.07;2.77;;;;;;;7.06;100.00;95880.78;4960001;28;21637;-67
2023/03/26 11:38:18;;;;;;;3.40;2.33;;;;;;;7.05;100.00;95878.34;4982956;28;21002;-67
2023/03/26 11:40:49;;;;;;;4.80;2.00;;;;;;;6.91;100.00;95878.25;4963796;28;20213;-67
2023/03/26 11:43:21;;;;;;;4.00;2.70;;;;;;;6.85;100.00;95881.66;4979567;28;20402;-65
2023/03/26 11:45:50;;;;;;;7.40;2.43;;;;;;;6.94;100.00;95880.50;4923101;28;21062;-68
2023/03/26 11:48:20;;;;;;;3.27;2.33;;;;;;;7.03;100.00;95877.72;4960735;28;20228;-66
2023/03/26 11:50:51;;;;;;;4.60;2.40;;;;;;;7.09;100.00;95871.69;4958099;28;20209;-68
2023/03/26 11:53:22;;;;;;;3.53;2.67;;;;;;;7.08;100.00;95868.22;4977479;28;20684;-67
2023/03/26 11:55:57;;;;;;;3.23;1.90;;;;;;;7.05;100.00;95865.19;4961695;28;20680;-68
2023/03/26 11:58:30;;;;;;;3.93;2.63;;;;;;;6.97;100.00;95857.41;4977746;28;20484;-65
2023/03/26 12:00:59;;;;;;;3.43;2.50;;;;;;;6.79;100.00;95856.09;4926798;28;20209;-65